Gapland, Maryland
Current Conditions -  °F | °C
As of 8:25 PM on Tuesday 25 Nov 2014 (Local Time) from KFDK Reporting Station
Clear Clear  
Wind Chill: 39°   Ceiling: Unl
Heat Index: 39°   Visibility: 10mi
Dew Point: 32°   Wind: 3mph
Humidity: 75%   Direction: 80°E
Pressure: 30.15"   Gusts: NA
Location:  39.4°N, 77.66°W
Report Text: KFDK 260125Z AUTO 08003KT 10SM CLR 04/00 A3015 RMK AO2
Loading
Personal Weather Stations






























Interactive Weather Map New forecast layout! Learn more

10-Day Weather Forecast

Advertisements
Track Severe Weather on mobile